sensor_id;sensor_type;location;lat;lon;timestamp;P1;durP1;ratioP1;P2;durP2;ratioP2
22107;SDS011;11220;48.812;9.128;2022-07-29T00:02:11;1.52;;;1.42;;
22107;SDS011;11220;48.812;9.128;2022-07-29T00:04:37;1.90;;;1.70;;
22107;SDS011;11220;48.812;9.128;2022-07-29T00:07:03;1.30;;;1.20;;
22107;SDS011;11220;48.812;9.128;2022-07-29T00:09:29;2.10;;;1.20;;
22107;SDS011;11220;48.812;9.128;2022-07-29T00:11:56;1.48;;;1.38;;
22107;SDS011;11220;48.812;9.128;2022-07-29T00:14:24;1.88;;;1.73;;
22107;SDS011;11220;48.812;9.128;2022-07-29T00:16:50;1.65;;;1.55;;
22107;SDS011;11220;48.812;9.128;2022-07-29T00:19:15;1.23;;;1.13;;
22107;SDS011;11220;48.812;9.128;2022-07-29T00:21:41;1.30;;;1.20;;
22107;SDS011;11220;48.812;9.128;2022-07-29T00:24:06;1.92;;;1.23;;
22107;SDS011;11220;48.812;9.128;2022-07-29T00:26:32;1.40;;;1.30;;
22107;SDS011;11220;48.812;9.128;2022-07-29T00:28:58;1.55;;;1.30;;
22107;SDS011;11220;48.812;9.128;2022-07-29T00:31:24;1.60;;;1.50;;
22107;SDS011;11220;48.812;9.128;2022-07-29T00:33:51;1.50;;;1.40;;
22107;SDS011;11220;48.812;9.128;2022-07-29T00:36:16;1.50;;;1.40;;
22107;SDS011;11220;48.812;9.128;2022-07-29T00:38:42;1.60;;;1.50;;
22107;SDS011;11220;48.812;9.128;2022-07-29T00:41:10;1.30;;;1.20;;
22107;SDS011;11220;48.812;9.128;2022-07-29T00:43:36;1.63;;;1.48;;
22107;SDS011;11220;48.812;9.128;2022-07-29T00:46:01;1.50;;;1.23;;
22107;SDS011;11220;48.812;9.128;2022-07-29T00:48:27;1.75;;;1.65;;
22107;SDS011;11220;48.812;9.128;2022-07-29T00:50:52;1.60;;;1.50;;
22107;SDS011;11220;48.812;9.128;2022-07-29T00:53:18;1.42;;;1.33;;
22107;SDS011;11220;48.812;9.128;2022-07-29T00:55:45;1.70;;;1.40;;
22107;SDS011;11220;48.812;9.128;2022-07-29T00:58:11;1.33;;;1.23;;
22107;SDS011;11220;48.812;9.128;2022-07-29T01:00:38;1.73;;;1.55;;
22107;SDS011;11220;48.812;9.128;2022-07-29T01:03:05;2.00;;;1.55;;
22107;SDS011;11220;48.812;9.128;2022-07-29T01:05:31;1.40;;;1.30;;
22107;SDS011;11220;48.812;9.128;2022-07-29T01:07:58;1.38;;;1.27;;
22107;SDS011;11220;48.812;9.128;2022-07-29T01:10:24;1.58;;;1.40;;
22107;SDS011;11220;48.812;9.128;2022-07-29T01:12:51;1.50;;;1.40;;
22107;SDS011;11220;48.812;9.128;2022-07-29T01:15:19;1.60;;;1.40;;
22107;SDS011;11220;48.812;9.128;2022-07-29T01:17:51;1.30;;;1.20;;
22107;SDS011;11220;48.812;9.128;2022-07-29T01:20:24;1.13;;;1.02;;
22107;SDS011;11220;48.812;9.128;2022-07-29T01:31:24;1.33;;;1.17;;
22107;SDS011;11220;48.812;9.128;2022-07-29T01:33:58;1.70;;;1.38;;
22107;SDS011;11220;48.812;9.128;2022-07-29T01:36:28;1.40;;;1.17;;
22107;SDS011;11220;48.812;9.128;2022-07-29T01:39:06;1.35;;;1.10;;
22107;SDS011;11220;48.812;9.128;2022-07-29T01:41:38;1.20;;;1.10;;
22107;SDS011;11220;48.812;9.128;2022-07-29T01:44:11;0.93;;;0.93;;
22107;SDS011;11220;48.812;9.128;2022-07-29T01:46:44;1.30;;;1.20;;
22107;SDS011;11220;48.812;9.128;2022-07-29T01:49:23;0.90;;;0.90;;
22107;SDS011;11220;48.812;9.128;2022-07-29T01:51:57;1.08;;;1.00;;
22107;SDS011;11220;48.812;9.128;2022-07-29T01:54:38;1.40;;;1.30;;
22107;SDS011;11220;48.812;9.128;2022-07-29T01:57:08;1.17;;;1.08;;
22107;SDS011;11220;48.812;9.128;2022-07-29T02:02:03;0.95;;;0.85;;
22107;SDS011;11220;48.812;9.128;2022-07-29T02:04:33;1.35;;;1.25;;
22107;SDS011;11220;48.812;9.128;2022-07-29T02:07:02;1.30;;;1.20;;
22107;SDS011;11220;48.812;9.128;2022-07-29T02:09:31;1.10;;;1.00;;
22107;SDS011;11220;48.812;9.128;2022-07-29T02:14:28;1.20;;;1.10;;
22107;SDS011;11220;48.812;9.128;2022-07-29T02:16:56;0.85;;;0.85;;
22107;SDS011;11220;48.812;9.128;2022-07-29T02:19:25;1.20;;;1.10;;
22107;SDS011;11220;48.812;9.128;2022-07-29T02:21:52;0.93;;;0.93;;
22107;SDS011;11220;48.812;9.128;2022-07-29T02:24:19;1.10;;;1.00;;
22107;SDS011;11220;48.812;9.128;2022-07-29T02:26:47;1.15;;;1.05;;
22107;SDS011;11220;48.812;9.128;2022-07-29T02:29:15;1.20;;;1.10;;
22107;SDS011;11220;48.812;9.128;2022-07-29T02:31:44;1.02;;;1.00;;
22107;SDS011;11220;48.812;9.128;2022-07-29T02:34:12;0.90;;;0.90;;
22107;SDS011;11220;48.812;9.128;2022-07-29T02:36:39;1.30;;;1.10;;
22107;SDS011;11220;48.812;9.128;2022-07-29T02:39:07;0.95;;;0.70;;
22107;SDS011;11220;48.812;9.128;2022-07-29T02:41:35;1.13;;;0.90;;
22107;SDS011;11220;48.812;9.128;2022-07-29T02:44:11;1.23;;;1.00;;
22107;SDS011;11220;48.812;9.128;2022-07-29T02:46:48;1.13;;;1.02;;
22107;SDS011;11220;48.812;9.128;2022-07-29T02:49:17;1.17;;;1.08;;
22107;SDS011;11220;48.812;9.128;2022-07-29T02:51:51;1.45;;;1.25;;
22107;SDS011;11220;48.812;9.128;2022-07-29T02:54:41;0.95;;;0.85;;
22107;SDS011;11220;48.812;9.128;2022-07-29T02:57:14;1.20;;;1.10;;
22107;SDS011;11220;48.812;9.128;2022-07-29T02:59:45;0.80;;;0.80;;
22107;SDS011;11220;48.812;9.128;2022-07-29T03:02:14;1.00;;;0.90;;
22107;SDS011;11220;48.812;9.128;2022-07-29T03:04:41;0.95;;;0.95;;
22107;SDS011;11220;48.812;9.128;2022-07-29T03:07:08;1.20;;;1.10;;
22107;SDS011;11220;48.812;9.128;2022-07-29T03:09:36;0.90;;;0.90;;
22107;SDS011;11220;48.812;9.128;2022-07-29T03:12:03;0.93;;;0.82;;
22107;SDS011;11220;48.812;9.128;2022-07-29T03:14:29;1.13;;;1.02;;
22107;SDS011;11220;48.812;9.128;2022-07-29T03:16:56;0.77;;;0.77;;
22107;SDS011;11220;48.812;9.128;2022-07-29T03:19:22;1.15;;;0.77;;
22107;SDS011;11220;48.812;9.128;2022-07-29T03:21:48;0.88;;;0.88;;
22107;SDS011;11220;48.812;9.128;2022-07-29T03:24:24;1.00;;;0.90;;
22107;SDS011;11220;48.812;9.128;2022-07-29T03:26:57;0.85;;;0.80;;
22107;SDS011;11220;48.812;9.128;2022-07-29T03:29:23;0.93;;;0.82;;
22107;SDS011;11220;48.812;9.128;2022-07-29T03:31:49;1.05;;;0.90;;
22107;SDS011;11220;48.812;9.128;2022-07-29T03:34:14;0.95;;;0.90;;
22107;SDS011;11220;48.812;9.128;2022-07-29T03:36:40;0.95;;;0.77;;
22107;SDS011;11220;48.812;9.128;2022-07-29T03:39:05;0.70;;;0.70;;
22107;SDS011;11220;48.812;9.128;2022-07-29T03:41:34;0.65;;;0.65;;
22107;SDS011;11220;48.812;9.128;2022-07-29T03:44:01;0.80;;;0.80;;
22107;SDS011;11220;48.812;9.128;2022-07-29T03:46:28;0.93;;;0.93;;
22107;SDS011;11220;48.812;9.128;2022-07-29T03:48:58;0.80;;;0.80;;
22107;SDS011;11220;48.812;9.128;2022-07-29T03:51:25;1.00;;;0.90;;
22107;SDS011;11220;48.812;9.128;2022-07-29T03:53:52;0.90;;;0.90;;
22107;SDS011;11220;48.812;9.128;2022-07-29T03:56:17;0.80;;;0.80;;
22107;SDS011;11220;48.812;9.128;2022-07-29T03:58:47;0.88;;;0.80;;
22107;SDS011;11220;48.812;9.128;2022-07-29T04:01:15;0.80;;;0.70;;
22107;SDS011;11220;48.812;9.128;2022-07-29T04:03:42;1.10;;;0.98;;
22107;SDS011;11220;48.812;9.128;2022-07-29T04:06:10;0.70;;;0.70;;
22107;SDS011;11220;48.812;9.128;2022-07-29T04:08:36;0.95;;;0.80;;
22107;SDS011;11220;48.812;9.128;2022-07-29T04:11:02;1.23;;;1.00;;
22107;SDS011;11220;48.812;9.128;2022-07-29T04:13:28;1.02;;;0.93;;
22107;SDS011;11220;48.812;9.128;2022-07-29T04:15:54;1.02;;;0.93;;
22107;SDS011;11220;48.812;9.128;2022-07-29T04:18:19;0.90;;;0.90;;
22107;SDS011;11220;48.812;9.128;2022-07-29T04:20:45;0.88;;;0.88;;
22107;SDS011;11220;48.812;9.128;2022-07-29T04:23:10;1.05;;;0.90;;
22107;SDS011;11220;48.812;9.128;2022-07-29T04:25:36;0.90;;;0.90;;
22107;SDS011;11220;48.812;9.128;2022-07-29T04:28:03;1.15;;;0.90;;
22107;SDS011;11220;48.812;9.128;2022-07-29T04:30:29;0.70;;;0.70;;
22107;SDS011;11220;48.812;9.128;2022-07-29T04:32:56;1.00;;;0.95;;
22107;SDS011;11220;48.812;9.128;2022-07-29T04:35:21;0.95;;;0.90;;
22107;SDS011;11220;48.812;9.128;2022-07-29T04:37:47;1.20;;;0.90;;
22107;SDS011;11220;48.812;9.128;2022-07-29T04:40:12;1.00;;;0.90;;
22107;SDS011;11220;48.812;9.128;2022-07-29T04:42:38;0.77;;;0.77;;
22107;SDS011;11220;48.812;9.128;2022-07-29T04:45:04;0.77;;;0.77;;
22107;SDS011;11220;48.812;9.128;2022-07-29T04:47:30;1.05;;;0.93;;
22107;SDS011;11220;48.812;9.128;2022-07-29T04:49:56;0.80;;;0.73;;
22107;SDS011;11220;48.812;9.128;2022-07-29T04:52:22;0.73;;;0.73;;
22107;SDS011;11220;48.812;9.128;2022-07-29T04:54:48;0.80;;;0.80;;
22107;SDS011;11220;48.812;9.128;2022-07-29T04:57:13;0.80;;;0.80;;
22107;SDS011;11220;48.812;9.128;2022-07-29T04:59:39;1.00;;;0.90;;
22107;SDS011;11220;48.812;9.128;2022-07-29T05:02:04;0.80;;;0.80;;
22107;SDS011;11220;48.812;9.128;2022-07-29T05:04:30;0.80;;;0.80;;
22107;SDS011;11220;48.812;9.128;2022-07-29T05:06:56;1.00;;;0.90;;
22107;SDS011;11220;48.812;9.128;2022-07-29T05:09:21;1.00;;;0.80;;
22107;SDS011;11220;48.812;9.128;2022-07-29T05:11:46;0.75;;;0.75;;
22107;SDS011;11220;48.812;9.128;2022-07-29T05:14:12;0.95;;;0.95;;
22107;SDS011;11220;48.812;9.128;2022-07-29T05:16:38;1.15;;;0.80;;
22107;SDS011;11220;48.812;9.128;2022-07-29T05:19:05;1.17;;;0.90;;
22107;SDS011;11220;48.812;9.128;2022-07-29T05:21:30;1.25;;;1.00;;
22107;SDS011;11220;48.812;9.128;2022-07-29T05:23:56;1.05;;;0.90;;
22107;SDS011;11220;48.812;9.128;2022-07-29T05:26:21;0.80;;;0.80;;
22107;SDS011;11220;48.812;9.128;2022-07-29T05:28:47;1.23;;;0.90;;
22107;SDS011;11220;48.812;9.128;2022-07-29T05:31:13;0.77;;;0.77;;
22107;SDS011;11220;48.812;9.128;2022-07-29T05:33:39;0.95;;;0.90;;
22107;SDS011;11220;48.812;9.128;2022-07-29T05:36:05;1.00;;;0.88;;
22107;SDS011;11220;48.812;9.128;2022-07-29T05:38:31;1.00;;;0.90;;
22107;SDS011;11220;48.812;9.128;2022-07-29T05:40:58;1.05;;;0.90;;
22107;SDS011;11220;48.812;9.128;2022-07-29T05:43:27;1.00;;;0.90;;
22107;SDS011;11220;48.812;9.128;2022-07-29T05:45:53;1.02;;;0.90;;
22107;SDS011;11220;48.812;9.128;2022-07-29T05:48:19;0.77;;;0.77;;
22107;SDS011;11220;48.812;9.128;2022-07-29T05:50:44;0.77;;;0.77;;
22107;SDS011;11220;48.812;9.128;2022-07-29T05:53:10;0.93;;;0.90;;
22107;SDS011;11220;48.812;9.128;2022-07-29T05:55:35;0.80;;;0.80;;
22107;SDS011;11220;48.812;9.128;2022-07-29T05:58:01;1.02;;;0.80;;
22107;SDS011;11220;48.812;9.128;2022-07-29T06:00:27;0.85;;;0.85;;
22107;SDS011;11220;48.812;9.128;2022-07-29T06:02:52;1.08;;;0.80;;
22107;SDS011;11220;48.812;9.128;2022-07-29T06:05:18;0.70;;;0.65;;
22107;SDS011;11220;48.812;9.128;2022-07-29T06:07:43;0.95;;;0.80;;
22107;SDS011;11220;48.812;9.128;2022-07-29T06:10:09;0.90;;;0.80;;
22107;SDS011;11220;48.812;9.128;2022-07-29T06:12:35;0.82;;;0.82;;
22107;SDS011;11220;48.812;9.128;2022-07-29T06:15:01;1.08;;;1.00;;
22107;SDS011;11220;48.812;9.128;2022-07-29T06:17:26;1.33;;;1.02;;
22107;SDS011;11220;48.812;9.128;2022-07-29T06:19:52;0.77;;;0.77;;
22107;SDS011;11220;48.812;9.128;2022-07-29T06:22:17;0.90;;;0.73;;
22107;SDS011;11220;48.812;9.128;2022-07-29T06:24:43;0.80;;;0.80;;
22107;SDS011;11220;48.812;9.128;2022-07-29T06:27:12;0.82;;;0.82;;
22107;SDS011;11220;48.812;9.128;2022-07-29T06:29:37;0.70;;;0.68;;
22107;SDS011;11220;48.812;9.128;2022-07-29T06:32:03;1.38;;;1.05;;
22107;SDS011;11220;48.812;9.128;2022-07-29T06:34:29;0.93;;;0.82;;
22107;SDS011;11220;48.812;9.128;2022-07-29T06:36:54;0.90;;;0.90;;
22107;SDS011;11220;48.812;9.128;2022-07-29T06:39:20;1.30;;;0.90;;
22107;SDS011;11220;48.812;9.128;2022-07-29T06:41:46;1.17;;;1.08;;
22107;SDS011;11220;48.812;9.128;2022-07-29T06:44:14;1.05;;;0.93;;
22107;SDS011;11220;48.812;9.128;2022-07-29T06:46:40;0.90;;;0.90;;
22107;SDS011;11220;48.812;9.128;2022-07-29T06:49:05;0.70;;;0.70;;
22107;SDS011;11220;48.812;9.128;2022-07-29T06:51:31;1.30;;;1.20;;
22107;SDS011;11220;48.812;9.128;2022-07-29T06:53:56;1.10;;;1.00;;
22107;SDS011;11220;48.812;9.128;2022-07-29T06:56:25;0.98;;;0.93;;
22107;SDS011;11220;48.812;9.128;2022-07-29T06:58:51;1.10;;;1.00;;
22107;SDS011;11220;48.812;9.128;2022-07-29T07:01:17;1.67;;;1.05;;
22107;SDS011;11220;48.812;9.128;2022-07-29T07:03:42;1.08;;;0.93;;
22107;SDS011;11220;48.812;9.128;2022-07-29T07:06:08;1.00;;;0.90;;
22107;SDS011;11220;48.812;9.128;2022-07-29T07:08:33;1.27;;;1.02;;
22107;SDS011;11220;48.812;9.128;2022-07-29T07:10:59;1.30;;;1.13;;
22107;SDS011;11220;48.812;9.128;2022-07-29T07:13:24;0.88;;;0.88;;
22107;SDS011;11220;48.812;9.128;2022-07-29T07:15:50;0.90;;;0.88;;
22107;SDS011;11220;48.812;9.128;2022-07-29T07:18:17;1.13;;;0.80;;
22107;SDS011;11220;48.812;9.128;2022-07-29T07:20:43;1.33;;;1.00;;
22107;SDS011;11220;48.812;9.128;2022-07-29T07:23:09;1.00;;;0.90;;
22107;SDS011;11220;48.812;9.128;2022-07-29T07:25:36;1.15;;;1.05;;
22107;SDS011;11220;48.812;9.128;2022-07-29T07:28:02;1.08;;;0.98;;
22107;SDS011;11220;48.812;9.128;2022-07-29T07:30:28;1.33;;;1.20;;
22107;SDS011;11220;48.812;9.128;2022-07-29T07:32:54;1.33;;;1.00;;
22107;SDS011;11220;48.812;9.128;2022-07-29T07:35:20;1.20;;;1.10;;
22107;SDS011;11220;48.812;9.128;2022-07-29T07:37:46;0.90;;;0.90;;
22107;SDS011;11220;48.812;9.128;2022-07-29T07:40:12;1.08;;;1.08;;
22107;SDS011;11220;48.812;9.128;2022-07-29T07:42:38;1.25;;;1.05;;
22107;SDS011;11220;48.812;9.128;2022-07-29T07:45:04;1.27;;;1.15;;
22107;SDS011;11220;48.812;9.128;2022-07-29T07:47:31;0.98;;;0.88;;
22107;SDS011;11220;48.812;9.128;2022-07-29T07:49:57;1.23;;;1.13;;
22107;SDS011;11220;48.812;9.128;2022-07-29T07:52:22;1.50;;;1.40;;
22107;SDS011;11220;48.812;9.128;2022-07-29T07:54:48;1.77;;;1.15;;
22107;SDS011;11220;48.812;9.128;2022-07-29T07:57:14;1.27;;;1.17;;
22107;SDS011;11220;48.812;9.128;2022-07-29T07:59:40;1.00;;;1.00;;
22107;SDS011;11220;48.812;9.128;2022-07-29T08:02:06;1.67;;;1.58;;
22107;SDS011;11220;48.812;9.128;2022-07-29T08:04:32;1.42;;;1.23;;
22107;SDS011;11220;48.812;9.128;2022-07-29T08:06:58;1.42;;;1.33;;
22107;SDS011;11220;48.812;9.128;2022-07-29T08:09:24;1.45;;;1.02;;
22107;SDS011;11220;48.812;9.128;2022-07-29T08:11:51;1.50;;;1.40;;
22107;SDS011;11220;48.812;9.128;2022-07-29T08:14:17;1.00;;;1.00;;
22107;SDS011;11220;48.812;9.128;2022-07-29T08:16:43;1.48;;;1.23;;
22107;SDS011;11220;48.812;9.128;2022-07-29T08:19:08;1.10;;;1.00;;
22107;SDS011;11220;48.812;9.128;2022-07-29T08:21:35;1.92;;;1.63;;
22107;SDS011;11220;48.812;9.128;2022-07-29T08:24:01;1.48;;;1.38;;
22107;SDS011;11220;48.812;9.128;2022-07-29T08:26:45;1.20;;;1.10;;
22107;SDS011;11220;48.812;9.128;2022-07-29T08:29:11;1.55;;;1.35;;
22107;SDS011;11220;48.812;9.128;2022-07-29T08:31:37;1.40;;;1.30;;
22107;SDS011;11220;48.812;9.128;2022-07-29T08:34:04;1.80;;;1.30;;
22107;SDS011;11220;48.812;9.128;2022-07-29T08:36:30;1.30;;;1.20;;
22107;SDS011;11220;48.812;9.128;2022-07-29T08:38:57;1.50;;;1.40;;
22107;SDS011;11220;48.812;9.128;2022-07-29T08:41:23;1.40;;;1.30;;
22107;SDS011;11220;48.812;9.128;2022-07-29T08:43:49;1.33;;;1.23;;
22107;SDS011;11220;48.812;9.128;2022-07-29T08:46:15;1.40;;;1.30;;
22107;SDS011;11220;48.812;9.128;2022-07-29T08:48:42;1.60;;;1.50;;
22107;SDS011;11220;48.812;9.128;2022-07-29T08:51:08;2.05;;;1.30;;
22107;SDS011;11220;48.812;9.128;2022-07-29T08:53:37;1.83;;;1.58;;
22107;SDS011;11220;48.812;9.128;2022-07-29T08:56:06;1.38;;;1.20;;
22107;SDS011;11220;48.812;9.128;2022-07-29T08:58:32;1.70;;;1.60;;
22107;SDS011;11220;48.812;9.128;2022-07-29T09:00:59;1.50;;;1.40;;
22107;SDS011;11220;48.812;9.128;2022-07-29T09:03:29;1.80;;;1.40;;
22107;SDS011;11220;48.812;9.128;2022-07-29T09:05:56;1.55;;;1.33;;
22107;SDS011;11220;48.812;9.128;2022-07-29T09:08:22;1.70;;;1.60;;
22107;SDS011;11220;48.812;9.128;2022-07-29T09:10:48;1.60;;;1.50;;
22107;SDS011;11220;48.812;9.128;2022-07-29T09:13:14;1.70;;;1.60;;
22107;SDS011;11220;48.812;9.128;2022-07-29T09:15:40;1.60;;;1.50;;
22107;SDS011;11220;48.812;9.128;2022-07-29T09:18:05;1.67;;;1.58;;
22107;SDS011;11220;48.812;9.128;2022-07-29T09:20:31;1.80;;;1.70;;
22107;SDS011;11220;48.812;9.128;2022-07-29T09:23:17;1.58;;;1.48;;
22107;SDS011;11220;48.812;9.128;2022-07-29T09:25:42;1.65;;;1.55;;
22107;SDS011;11220;48.812;9.128;2022-07-29T09:28:08;1.65;;;1.55;;
22107;SDS011;11220;48.812;9.128;2022-07-29T09:30:38;1.55;;;1.45;;
22107;SDS011;11220;48.812;9.128;2022-07-29T09:33:18;1.45;;;1.35;;
22107;SDS011;11220;48.812;9.128;2022-07-29T09:35:45;1.60;;;1.50;;
22107;SDS011;11220;48.812;9.128;2022-07-29T09:40:39;1.80;;;1.58;;
22107;SDS011;11220;48.812;9.128;2022-07-29T09:43:11;1.85;;;1.73;;
22107;SDS011;11220;48.812;9.128;2022-07-29T09:45:38;1.85;;;1.63;;
22107;SDS011;11220;48.812;9.128;2022-07-29T09:48:20;1.90;;;1.80;;
22107;SDS011;11220;48.812;9.128;2022-07-29T09:50:50;1.98;;;1.77;;
22107;SDS011;11220;48.812;9.128;2022-07-29T09:53:33;1.80;;;1.70;;
22107;SDS011;11220;48.812;9.128;2022-07-29T09:56:00;2.28;;;2.08;;
22107;SDS011;11220;48.812;9.128;2022-07-29T09:58:26;1.88;;;1.75;;
22107;SDS011;11220;48.812;9.128;2022-07-29T10:00:52;1.75;;;1.65;;
22107;SDS011;11220;48.812;9.128;2022-07-29T10:03:20;1.98;;;1.73;;
22107;SDS011;11220;48.812;9.128;2022-07-29T10:05:46;1.90;;;1.80;;
22107;SDS011;11220;48.812;9.128;2022-07-29T10:08:33;1.85;;;1.73;;
22107;SDS011;11220;48.812;9.128;2022-07-29T10:11:08;2.08;;;1.98;;
22107;SDS011;11220;48.812;9.128;2022-07-29T10:13:35;2.22;;;2.03;;
22107;SDS011;11220;48.812;9.128;2022-07-29T10:16:00;1.63;;;1.50;;
22107;SDS011;11220;48.812;9.128;2022-07-29T10:18:27;1.90;;;1.80;;
22107;SDS011;11220;48.812;9.128;2022-07-29T10:20:53;2.30;;;2.10;;
22107;SDS011;11220;48.812;9.128;2022-07-29T10:23:19;2.20;;;2.00;;
22107;SDS011;11220;48.812;9.128;2022-07-29T10:25:45;1.80;;;1.70;;
22107;SDS011;11220;48.812;9.128;2022-07-29T10:28:10;1.83;;;1.70;;
22107;SDS011;11220;48.812;9.128;2022-07-29T10:30:36;2.20;;;2.00;;
22107;SDS011;11220;48.812;9.128;2022-07-29T10:36:13;3.05;;;1.92;;
22107;SDS011;11220;48.812;9.128;2022-07-29T10:44:39;1.95;;;1.80;;
22107;SDS011;11220;48.812;9.128;2022-07-29T10:47:06;1.88;;;1.77;;
22107;SDS011;11220;48.812;9.128;2022-07-29T10:49:32;2.13;;;1.90;;
22107;SDS011;11220;48.812;9.128;2022-07-29T10:59:45;2.38;;;2.15;;
22107;SDS011;11220;48.812;9.128;2022-07-29T11:05:00;2.15;;;1.92;;
22107;SDS011;11220;48.812;9.128;2022-07-29T11:07:28;2.40;;;2.10;;
22107;SDS011;11220;48.812;9.128;2022-07-29T11:20:41;2.33;;;2.13;;
22107;SDS011;11220;48.812;9.128;2022-07-29T11:23:43;1.80;;;1.70;;
22107;SDS011;11220;48.812;9.128;2022-07-29T11:31:16;2.00;;;1.90;;
22107;SDS011;11220;48.812;9.128;2022-07-29T11:33:57;2.20;;;2.00;;
22107;SDS011;11220;48.812;9.128;2022-07-29T11:39:31;2.00;;;1.90;;
22107;SDS011;11220;48.812;9.128;2022-07-29T11:45:03;1.70;;;1.60;;
22107;SDS011;11220;48.812;9.128;2022-07-29T11:47:39;2.42;;;2.22;;
22107;SDS011;11220;48.812;9.128;2022-07-29T11:50:08;1.88;;;1.77;;
22107;SDS011;11220;48.812;9.128;2022-07-29T11:52:41;2.38;;;1.83;;
22107;SDS011;11220;48.812;9.128;2022-07-29T11:55:11;2.42;;;2.20;;
22107;SDS011;11220;48.812;9.128;2022-07-29T11:57:47;2.08;;;1.88;;
22107;SDS011;11220;48.812;9.128;2022-07-29T12:00:31;2.20;;;2.00;;
22107;SDS011;11220;48.812;9.128;2022-07-29T12:02:59;2.08;;;1.80;;
22107;SDS011;11220;48.812;9.128;2022-07-29T12:05:33;1.73;;;1.60;;
22107;SDS011;11220;48.812;9.128;2022-07-29T12:08:10;1.90;;;1.80;;
22107;SDS011;11220;48.812;9.128;2022-07-29T12:10:38;2.22;;;1.98;;
22107;SDS011;11220;48.812;9.128;2022-07-29T12:13:04;1.65;;;1.55;;
22107;SDS011;11220;48.812;9.128;2022-07-29T12:15:30;2.03;;;1.92;;
22107;SDS011;11220;48.812;9.128;2022-07-29T12:17:56;1.80;;;1.70;;
22107;SDS011;11220;48.812;9.128;2022-07-29T12:20:22;2.05;;;1.80;;
22107;SDS011;11220;48.812;9.128;2022-07-29T12:22:52;2.30;;;1.70;;
22107;SDS011;11220;48.812;9.128;2022-07-29T12:25:19;2.50;;;1.75;;
22107;SDS011;11220;48.812;9.128;2022-07-29T12:27:47;1.80;;;1.70;;
22107;SDS011;11220;48.812;9.128;2022-07-29T12:30:22;1.48;;;1.38;;
22107;SDS011;11220;48.812;9.128;2022-07-29T12:32:47;1.60;;;1.50;;
22107;SDS011;11220;48.812;9.128;2022-07-29T12:35:18;1.58;;;1.48;;
22107;SDS011;11220;48.812;9.128;2022-07-29T12:37:45;1.77;;;1.67;;
22107;SDS011;11220;48.812;9.128;2022-07-29T12:40:16;1.92;;;1.65;;
22107;SDS011;11220;48.812;9.128;2022-07-29T12:45:31;1.90;;;1.58;;
22107;SDS011;11220;48.812;9.128;2022-07-29T12:47:56;1.83;;;1.73;;
22107;SDS011;11220;48.812;9.128;2022-07-29T12:50:22;1.95;;;1.70;;
22107;SDS011;11220;48.812;9.128;2022-07-29T12:52:48;1.95;;;1.50;;
22107;SDS011;11220;48.812;9.128;2022-07-29T12:55:13;2.05;;;1.90;;
22107;SDS011;11220;48.812;9.128;2022-07-29T12:57:44;1.88;;;1.70;;
22107;SDS011;11220;48.812;9.128;2022-07-29T13:00:13;1.70;;;1.60;;
22107;SDS011;11220;48.812;9.128;2022-07-29T13:02:40;1.65;;;1.50;;
22107;SDS011;11220;48.812;9.128;2022-07-29T13:05:07;1.92;;;1.83;;
22107;SDS011;11220;48.812;9.128;2022-07-29T13:07:37;1.52;;;1.40;;
22107;SDS011;11220;48.812;9.128;2022-07-29T13:13:00;1.70;;;1.60;;
22107;SDS011;11220;48.812;9.128;2022-07-29T13:15:34;1.83;;;1.60;;
22107;SDS011;11220;48.812;9.128;2022-07-29T13:18:00;1.50;;;1.40;;
22107;SDS011;11220;48.812;9.128;2022-07-29T13:20:27;1.85;;;1.65;;
22107;SDS011;11220;48.812;9.128;2022-07-29T13:22:57;1.63;;;1.52;;
22107;SDS011;11220;48.812;9.128;2022-07-29T13:25:25;1.45;;;1.35;;
22107;SDS011;11220;48.812;9.128;2022-07-29T13:27:56;1.50;;;1.40;;
22107;SDS011;11220;48.812;9.128;2022-07-29T13:30:22;1.67;;;1.58;;
22107;SDS011;11220;48.812;9.128;2022-07-29T13:32:53;1.55;;;1.45;;
22107;SDS011;11220;48.812;9.128;2022-07-29T13:35:20;1.50;;;1.40;;
22107;SDS011;11220;48.812;9.128;2022-07-29T13:37:45;1.63;;;1.20;;
22107;SDS011;11220;48.812;9.128;2022-07-29T13:40:11;1.80;;;1.70;;
22107;SDS011;11220;48.812;9.128;2022-07-29T13:42:37;1.50;;;1.40;;
22107;SDS011;11220;48.812;9.128;2022-07-29T13:45:04;1.60;;;1.50;;
22107;SDS011;11220;48.812;9.128;2022-07-29T13:47:31;2.30;;;2.10;;
22107;SDS011;11220;48.812;9.128;2022-07-29T13:49:57;1.63;;;1.52;;
22107;SDS011;11220;48.812;9.128;2022-07-29T13:52:22;2.05;;;1.48;;
22107;SDS011;11220;48.812;9.128;2022-07-29T13:54:49;1.77;;;1.63;;
22107;SDS011;11220;48.812;9.128;2022-07-29T13:57:15;1.65;;;1.55;;
22107;SDS011;11220;48.812;9.128;2022-07-29T13:59:41;1.80;;;1.60;;
22107;SDS011;11220;48.812;9.128;2022-07-29T14:02:07;2.20;;;2.00;;
22107;SDS011;11220;48.812;9.128;2022-07-29T14:04:34;1.75;;;1.65;;
22107;SDS011;11220;48.812;9.128;2022-07-29T14:07:00;2.50;;;1.70;;
22107;SDS011;11220;48.812;9.128;2022-07-29T14:09:26;1.40;;;1.30;;
22107;SDS011;11220;48.812;9.128;2022-07-29T14:11:51;1.50;;;1.40;;
22107;SDS011;11220;48.812;9.128;2022-07-29T14:14:18;1.48;;;1.38;;
22107;SDS011;11220;48.812;9.128;2022-07-29T14:16:44;1.63;;;1.52;;
22107;SDS011;11220;48.812;9.128;2022-07-29T14:19:09;1.60;;;1.50;;
22107;SDS011;11220;48.812;9.128;2022-07-29T14:21:36;1.90;;;1.70;;
22107;SDS011;11220;48.812;9.128;2022-07-29T14:24:02;1.40;;;1.30;;
22107;SDS011;11220;48.812;9.128;2022-07-29T14:26:27;1.30;;;1.20;;
22107;SDS011;11220;48.812;9.128;2022-07-29T14:28:53;1.70;;;1.40;;
22107;SDS011;11220;48.812;9.128;2022-07-29T14:31:18;1.70;;;1.60;;
22107;SDS011;11220;48.812;9.128;2022-07-29T14:33:44;1.40;;;1.30;;
22107;SDS011;11220;48.812;9.128;2022-07-29T14:36:09;1.65;;;1.50;;
22107;SDS011;11220;48.812;9.128;2022-07-29T14:38:35;1.38;;;1.27;;
22107;SDS011;11220;48.812;9.128;2022-07-29T14:41:02;1.67;;;1.58;;
22107;SDS011;11220;48.812;9.128;2022-07-29T14:43:28;1.58;;;1.48;;
22107;SDS011;11220;48.812;9.128;2022-07-29T14:45:53;2.10;;;1.90;;
22107;SDS011;11220;48.812;9.128;2022-07-29T14:48:19;1.63;;;1.52;;
22107;SDS011;11220;48.812;9.128;2022-07-29T14:50:44;1.70;;;1.58;;
22107;SDS011;11220;48.812;9.128;2022-07-29T14:53:10;1.73;;;1.63;;
22107;SDS011;11220;48.812;9.128;2022-07-29T14:55:37;1.80;;;1.65;;
22107;SDS011;11220;48.812;9.128;2022-07-29T14:58:02;1.48;;;1.38;;
22107;SDS011;11220;48.812;9.128;2022-07-29T15:00:28;1.52;;;1.42;;
22107;SDS011;11220;48.812;9.128;2022-07-29T15:02:57;1.63;;;1.50;;
22107;SDS011;11220;48.812;9.128;2022-07-29T15:05:25;1.67;;;1.58;;
22107;SDS011;11220;48.812;9.128;2022-07-29T15:07:51;1.63;;;1.52;;
22107;SDS011;11220;48.812;9.128;2022-07-29T15:10:17;1.85;;;1.73;;
22107;SDS011;11220;48.812;9.128;2022-07-29T15:12:43;1.65;;;1.55;;
22107;SDS011;11220;48.812;9.128;2022-07-29T15:15:08;1.70;;;1.60;;
22107;SDS011;11220;48.812;9.128;2022-07-29T15:17:34;1.52;;;1.42;;
22107;SDS011;11220;48.812;9.128;2022-07-29T15:20:00;2.08;;;1.70;;
22107;SDS011;11220;48.812;9.128;2022-07-29T15:22:26;2.13;;;1.70;;
22107;SDS011;11220;48.812;9.128;2022-07-29T15:24:52;1.73;;;1.63;;
22107;SDS011;11220;48.812;9.128;2022-07-29T15:27:17;1.58;;;1.48;;
22107;SDS011;11220;48.812;9.128;2022-07-29T15:29:43;1.70;;;1.60;;
22107;SDS011;11220;48.812;9.128;2022-07-29T15:32:09;2.15;;;1.95;;
22107;SDS011;11220;48.812;9.128;2022-07-29T15:34:35;1.70;;;1.60;;
22107;SDS011;11220;48.812;9.128;2022-07-29T15:37:01;1.83;;;1.73;;
22107;SDS011;11220;48.812;9.128;2022-07-29T15:39:27;1.60;;;1.50;;
22107;SDS011;11220;48.812;9.128;2022-07-29T15:41:53;1.83;;;1.70;;
22107;SDS011;11220;48.812;9.128;2022-07-29T15:44:18;1.63;;;1.52;;
22107;SDS011;11220;48.812;9.128;2022-07-29T15:46:45;1.73;;;1.63;;
22107;SDS011;11220;48.812;9.128;2022-07-29T15:52:00;1.42;;;1.33;;
22107;SDS011;11220;48.812;9.128;2022-07-29T15:54:34;1.50;;;1.40;;
22107;SDS011;11220;48.812;9.128;2022-07-29T15:57:01;1.60;;;1.50;;